KIFP/IFP METAR and TAF weather

Enter ICAO airport designator
Station Type Date Time Source
KIFP METAR 2021/08/05 05:35 UTC NOAA

KIFP 050535Z AUTO 00000KT 10SM CLR 40/01 A2969 RMK AO2


Station Type Date Time Source
KIFP Decoded METAR 2021/08/05 05:35 UTC NOAA

Bullhead City, Laughlin/Bullhead International Airport, AZ, United States (KIFP) 35-09-27N 114-33-34W
Aug 05, 2021 - 01:35 AM EDT / 2021.08.05 0535 UTC
Wind: Calm:0
Visibility: 10 mile(s):0
Sky conditions: clear
Temperature: 104 F (40 C)
Dew Point: 33 F (1 C)
Relative Humidity: 8%
Pressure (altimeter): 29.69 in. Hg (1005 hPa)
ob: KIFP 050535Z AUTO 00000KT 10SM CLR 40/01 A2969 RMK AO2
cycle: 5

Station Type Date Time Source
KIFP TAF 2021/08/05 06:22 UTC NOAA

TAF KIFP 050520Z 0506/0606 VRB04KT P6SM SKC
FM051500 20008KT P6SM SKC
FM052100 18012G20KT P6SM SKC
FM060300 16007KT P6SM SKC

Example: see airport list